Time;durP1;ratioP1;P1;durP2;ratioP2;P2;SDS_P1;SDS_P2;PMS_P1;PMS_P2;Temp;Humidity;BMP_temperature;BMP_pressure;BME280_temperature;BME280_humidity;BME280_pressure;Samples;Min_cycle;Max_cycle;Signal;HPM_P1;HPM_P2
2021/05/07 00:01:47;;;;;;;;;;;;;;;8.63;60.41;99951.25;1836202;77;20160;-69
2021/05/07 00:04:17;;;;;;;;;;;;;;;8.60;60.42;99954.36;1791268;77;20148;-69
2021/05/07 00:06:50;;;;;;;;;;;;;;;8.56;60.50;99954.48;1827168;77;20134;-68
2021/05/07 00:09:18;;;;;;;;;;;;;;;8.53;60.55;99954.91;1826437;77;21182;-70
2021/05/07 00:11:47;;;;;;;;;;;;;;;8.52;60.56;99963.42;1831685;77;20179;-68
2021/05/07 00:14:15;;;;;;;;;;;;;;;8.49;60.57;99965.19;1832558;77;20236;-71
2021/05/07 00:16:43;;;;;;;;;;;;;;;8.46;60.53;99972.30;1830221;77;20474;-70
2021/05/07 00:19:11;;;;;;;;;;;;;;;8.45;60.62;99973.84;1823510;78;20133;-70
2021/05/07 00:21:40;;;;;;;;;;;;;;;8.42;60.66;99971.05;1822281;78;21201;-68
2021/05/07 00:24:08;;;;;;;;;;;;;;;8.41;60.62;99977.45;1819393;78;20151;-71
2021/05/07 00:26:37;;;;;;;;;;;;;;;8.39;60.74;99974.98;1826708;78;20178;-69
2021/05/07 00:29:05;;;;;;;;;;;;;;;8.40;60.78;99973.94;1819062;78;20155;-69
2021/05/07 00:31:33;;;;;;;;;;;;;;;8.39;60.78;99976.33;1817467;78;20108;-69
2021/05/07 00:34:01;;;;;;;;;;;;;;;8.39;60.86;99976.33;1820840;78;21204;-70
2021/05/07 00:36:29;;;;;;;;;;;;;;;8.38;60.89;99973.34;1802519;79;20137;-69
2021/05/07 00:38:57;;;;;;;;;;;;;;;8.35;60.91;99976.97;1710095;83;20188;-69
2021/05/07 00:41:25;;;;;;;;;;;;;;;8.32;60.89;99971.53;1715677;82;20872;-70
2021/05/07 00:43:53;;;;;;;;;;;;;;;8.28;60.98;99973.50;1715131;82;20253;-70
2021/05/07 00:46:21;;;;;;;;;;;;;;;8.22;61.11;99973.30;1699208;82;21204;-69
2021/05/07 00:48:50;;;;;;;;;;;;;;;8.19;61.17;99971.06;1729627;82;20233;-70
2021/05/07 00:51:18;;;;;;;;;;;;;;;8.15;61.24;99962.36;1722470;82;20322;-70
2021/05/07 00:53:47;;;;;;;;;;;;;;;8.14;61.24;99963.37;1724488;82;20432;-70
2021/05/07 00:56:14;;;;;;;;;;;;;;;8.11;61.21;99964.61;1735391;78;20304;-68
2021/05/07 00:58:43;;;;;;;;;;;;;;;8.11;61.13;99966.47;1786019;78;21207;-68
2021/05/07 01:01:12;;;;;;;;;;;;;;;8.10;61.10;99967.50;1819774;78;20210;-69
2021/05/07 01:03:40;;;;;;;;;;;;;;;8.10;60.96;99970.16;1817081;78;20158;-68
2021/05/07 01:06:08;;;;;;;;;;;;;;;8.11;60.83;99972.63;1803585;78;20553;-70
2021/05/07 01:08:36;;;;;;;;;;;;;;;8.11;60.58;99970.48;1787126;78;20265;-69
2021/05/07 01:11:04;;;;;;;;;;;;;;;8.11;60.62;99963.80;1785959;78;21141;-70
2021/05/07 01:13:33;;;;;;;;;;;;;;;8.10;60.46;99963.00;1784667;78;20194;-69
2021/05/07 01:16:06;;;;;;;;;;;;;;;8.12;60.43;99964.92;1785983;78;20488;-70
2021/05/07 01:18:34;;;;;;;;;;;;;;;8.14;60.22;99967.38;1813302;78;20150;-70
2021/05/07 01:21:03;;;;;;;;;;;;;;;8.16;60.00;99964.00;1818148;78;20154;-69
2021/05/07 01:23:31;;;;;;;;;;;;;;;8.17;60.00;99973.63;1810531;78;22091;-69
2021/05/07 01:25:59;;;;;;;;;;;;;;;8.15;59.97;99977.05;1815138;78;21070;-70
2021/05/07 01:28:27;;;;;;;;;;;;;;;8.14;59.92;99977.56;1815379;78;20175;-70
2021/05/07 01:30:55;;;;;;;;;;;;;;;8.15;59.90;99981.05;1818829;78;20126;-70
2021/05/07 01:33:32;;;;;;;;;;;;;;;8.13;59.88;99983.13;1810264;78;20264;-69
2021/05/07 01:36:00;;;;;;;;;;;;;;;8.10;59.88;99977.68;1786969;78;21206;-69
2021/05/07 01:38:28;;;;;;;;;;;;;;;8.09;59.97;99983.23;1806006;78;20245;-70
2021/05/07 01:40:57;;;;;;;;;;;;;;;8.06;60.05;99984.47;1783713;78;20159;-69
2021/05/07 01:43:27;;;;;;;;;;;;;;;8.07;60.10;99981.58;1818456;78;20186;-69
2021/05/07 01:45:57;;;;;;;;;;;;;;;8.12;60.07;99987.63;1813842;78;20272;-69
2021/05/07 01:48:26;;;;;;;;;;;;;;;8.14;59.96;99982.91;1819223;78;21190;-70
2021/05/07 01:50:54;;;;;;;;;;;;;;;8.17;60.08;99986.98;1816184;78;20147;-69
2021/05/07 01:53:24;;;;;;;;;;;;;;;8.22;60.08;99988.52;1814786;78;20534;-69
2021/05/07 01:55:52;;;;;;;;;;;;;;;8.27;60.10;99992.70;1811844;77;20135;-70
2021/05/07 01:58:22;;;;;;;;;;;;;;;8.32;60.01;99992.05;1805702;78;20173;-68
2021/05/07 02:00:52;;;;;;;;;;;;;;;8.33;59.97;99995.88;1821768;78;20577;-69
2021/05/07 02:03:19;;;;;;;;;;;;;;;8.35;59.93;99997.00;1814959;78;20132;-69
2021/05/07 02:05:52;;;;;;;;;;;;;;;8.38;59.87;100002.72;1815665;78;20292;-70
2021/05/07 02:08:21;;;;;;;;;;;;;;;8.43;59.81;100008.76;1795474;78;20136;-69
2021/05/07 02:10:52;;;;;;;;;;;;;;;8.46;59.79;100003.02;1818630;78;20166;-68
2021/05/07 02:13:27;;;;;;;;;;;;;;;8.55;59.73;100008.94;1819216;77;20228;-69
2021/05/07 02:15:56;;;;;;;;;;;;;;;8.50;59.67;100012.78;1828904;77;20496;-69
2021/05/07 02:18:25;;;;;;;;;;;;;;;8.51;59.57;100019.74;1801177;79;21271;-69
2021/05/07 02:20:56;;;;;;;;;;;;;;;8.50;59.44;100015.45;1711337;83;20939;-70
2021/05/07 02:23:27;;;;;;;;;;;;;;;8.50;59.31;100016.26;1713071;83;20191;-70
2021/05/07 02:25:58;;;;;;;;;;;;;;;8.50;59.27;100017.59;1696719;83;20516;-69
2021/05/07 02:28:38;;;;;;;;;;;;;;;8.54;59.23;100022.02;1823592;77;20258;-70
2021/05/07 02:31:08;;;;;;;;;;;;;;;8.48;59.18;100030.36;1808831;79;20125;-69
2021/05/07 02:33:38;;;;;;;;;;;;;;;8.45;59.32;100044.14;1813352;79;21242;-70
2021/05/07 02:36:06;;;;;;;;;;;;;;;8.44;59.35;100039.83;1785221;79;20303;-70
2021/05/07 02:38:37;;;;;;;;;;;;;;;8.43;59.36;100034.14;1817653;79;20224;-70
2021/05/07 02:41:04;;;;;;;;;;;;;;;8.44;59.34;100038.98;1819002;79;20121;-70
2021/05/07 02:43:33;;;;;;;;;;;;;;;8.43;59.25;100039.48;1818555;79;20176;-71
2021/05/07 02:46:01;;;;;;;;;;;;;;;8.43;59.11;100038.14;1818877;79;21277;-70
2021/05/07 02:48:30;;;;;;;;;;;;;;;8.43;59.00;100028.80;1819017;78;20188;-70
2021/05/07 02:50:58;;;;;;;;;;;;;;;8.43;59.02;100027.45;1782688;79;20115;-69
2021/05/07 02:53:26;;;;;;;;;;;;;;;8.44;58.95;100029.63;1818962;79;20141;-66
2021/05/07 02:55:55;;;;;;;;;;;;;;;8.41;58.95;100025.00;1819189;79;20164;-68
2021/05/07 02:58:23;;;;;;;;;;;;;;;8.34;59.32;100029.55;1775739;79;21275;-69
2021/05/07 03:00:50;;;;;;;;;;;;;;;8.27;59.70;100027.94;1781403;79;20299;-66
2021/05/07 03:03:18;;;;;;;;;;;;;;;8.22;59.73;100028.05;1808529;79;20149;-67
2021/05/07 03:05:47;;;;;;;;;;;;;;;8.20;59.78;100030.62;1808448;79;20168;-69
2021/05/07 03:08:21;;;;;;;;;;;;;;;8.18;59.76;100022.81;1814217;79;20216;-70
2021/05/07 03:10:49;;;;;;;;;;;;;;;8.17;59.82;100027.03;1818562;79;21220;-70
2021/05/07 03:13:17;;;;;;;;;;;;;;;8.15;59.69;100013.89;1818596;79;20109;-71
2021/05/07 03:15:46;;;;;;;;;;;;;;;8.17;59.71;100025.70;1819021;78;20236;-69
2021/05/07 03:18:17;;;;;;;;;;;;;;;8.19;59.67;100025.80;1800841;79;20204;-69
2021/05/07 03:20:45;;;;;;;;;;;;;;;8.23;59.63;100027.03;1800149;79;20300;-70
2021/05/07 03:23:13;;;;;;;;;;;;;;;8.30;59.28;100024.84;1800219;79;21265;-71
2021/05/07 03:25:41;;;;;;;;;;;;;;;8.42;58.37;100031.16;1800277;79;20145;-71
2021/05/07 03:28:09;;;;;;;;;;;;;;;8.56;58.13;100034.63;1800167;79;20193;-67
2021/05/07 03:30:37;;;;;;;;;;;;;;;8.75;57.64;100042.25;1800165;79;20233;-68
2021/05/07 03:33:06;;;;;;;;;;;;;;;9.00;57.11;100041.50;1800581;79;20559;-74
2021/05/07 03:35:34;;;;;;;;;;;;;;;9.38;56.18;100039.24;1800609;79;21145;-74
2021/05/07 03:38:03;;;;;;;;;;;;;;;10.00;55.19;100044.67;1800605;79;20145;-73
2021/05/07 03:40:30;;;;;;;;;;;;;;;10.75;53.56;100051.64;1799844;79;20181;-74
2021/05/07 03:42:58;;;;;;;;;;;;;;;11.64;51.85;100052.78;1800028;79;20217;-74
2021/05/07 03:45:26;;;;;;;;;;;;;;;12.61;49.70;100041.44;1800079;79;20167;-75
2021/05/07 03:47:55;;;;;;;;;;;;;;;13.32;47.40;100036.23;1799534;79;20757;-73
2021/05/07 03:50:23;;;;;;;;;;;;;;;13.72;46.09;100040.68;1800123;79;20229;-76
2021/05/07 03:52:51;;;;;;;;;;;;;;;13.99;45.12;100036.73;1799944;79;20197;-75
2021/05/07 03:55:20;;;;;;;;;;;;;;;14.02;44.90;100034.89;1765754;79;20255;-74
2021/05/07 03:57:48;;;;;;;;;;;;;;;13.83;44.80;100033.55;1799906;79;20184;-74
2021/05/07 04:00:17;;;;;;;;;;;;;;;13.54;45.28;100041.73;1800029;79;21208;-69
2021/05/07 04:02:45;;;;;;;;;;;;;;;13.29;45.87;100046.15;1799905;79;20189;-68
2021/05/07 04:05:14;;;;;;;;;;;;;;;13.14;46.54;100050.75;1800117;79;20431;-67
2021/05/07 04:07:42;;;;;;;;;;;;;;;13.10;46.75;100050.43;1799869;79;20213;-66
2021/05/07 04:10:17;;;;;;;;;;;;;;;13.20;47.04;100054.34;1767960;79;20304;-68
2021/05/07 04:15:17;;;;;;;;;;;;;;;13.67;46.64;100063.48;1768991;79;20162;-69
2021/05/07 04:17:45;;;;;;;;;;;;;;;13.90;46.47;100057.09;1799921;79;20215;-68
2021/05/07 04:20:13;;;;;;;;;;;;;;;14.39;46.05;100060.98;1799912;79;20228;-68
2021/05/07 04:22:42;;;;;;;;;;;;;;;15.23;44.94;100067.84;1761129;79;20268;-68
2021/05/07 04:25:10;;;;;;;;;;;;;;;16.40;43.06;100065.67;1800062;79;21271;-67
2021/05/07 04:27:38;;;;;;;;;;;;;;;17.71;40.80;100068.33;1794428;79;20221;-68
2021/05/07 04:30:07;;;;;;;;;;;;;;;18.98;38.71;100064.14;1788487;80;20328;-69
2021/05/07 04:32:35;;;;;;;;;;;;;;;20.15;36.69;100071.57;1788677;79;20228;-69
2021/05/07 04:35:03;;;;;;;;;;;;;;;21.08;34.85;100067.94;1788799;80;20143;-67
2021/05/07 04:37:31;;;;;;;;;;;;;;;21.65;33.69;100071.14;1788746;80;22316;-69
2021/05/07 04:40:00;;;;;;;;;;;;;;;22.05;32.89;100070.95;1788717;80;20241;-67
2021/05/07 04:42:27;;;;;;;;;;;;;;;22.43;32.27;100072.69;1792873;79;20224;-68
2021/05/07 04:44:55;;;;;;;;;;;;;;;22.60;31.46;100079.44;1785451;80;20570;-67
2021/05/07 04:47:23;;;;;;;;;;;;;;;22.65;31.14;100082.88;1788709;80;20287;-69
2021/05/07 04:49:51;;;;;;;;;;;;;;;23.04;30.89;100078.74;1788753;80;21217;-71
2021/05/07 04:52:19;;;;;;;;;;;;;;;23.72;30.69;100080.70;1788759;80;20127;-67
2021/05/07 04:54:48;;;;;;;;;;;;;;;24.45;29.12;100077.61;1788740;80;20403;-69
2021/05/07 04:57:16;;;;;;;;;;;;;;;25.12;28.16;100083.86;1779792;80;20217;-68
2021/05/07 04:59:44;;;;;;;;;;;;;;;25.68;26.98;100076.54;1788912;80;20687;-68
2021/05/07 05:02:11;;;;;;;;;;;;;;;26.04;26.54;100073.95;1788725;80;21198;-69
2021/05/07 05:04:40;;;;;;;;;;;;;;;26.26;25.54;100075.39;1788714;80;20150;-69
2021/05/07 05:07:09;;;;;;;;;;;;;;;26.15;25.58;100077.71;1788711;80;20146;-69
2021/05/07 05:09:37;;;;;;;;;;;;;;;26.01;25.65;100069.67;1788880;80;20495;-68
2021/05/07 05:12:06;;;;;;;;;;;;;;;25.88;25.53;100069.55;1788120;80;20234;-70
2021/05/07 05:14:33;;;;;;;;;;;;;;;25.62;25.79;100063.34;1788680;80;21138;-68
2021/05/07 05:17:02;;;;;;;;;;;;;;;25.30;26.03;100059.97;1788579;79;20158;-69
2021/05/07 05:19:30;;;;;;;;;;;;;;;25.01;26.72;100066.37;1788803;80;20110;-69
2021/05/07 05:21:59;;;;;;;;;;;;;;;24.81;27.00;100063.69;1788718;80;20265;-69
2021/05/07 05:24:27;;;;;;;;;;;;;;;24.59;27.43;100066.57;1785483;80;20154;-70
2021/05/07 05:26:55;;;;;;;;;;;;;;;24.41;27.68;100058.28;1788581;80;21096;-68
2021/05/07 05:29:26;;;;;;;;;;;;;;;24.28;27.78;100055.91;1799360;79;20249;-69
2021/05/07 05:31:54;;;;;;;;;;;;;;;24.14;27.50;100049.20;1797363;79;20205;-71
2021/05/07 05:34:22;;;;;;;;;;;;;;;23.97;27.67;100055.97;1768227;79;20252;-71
2021/05/07 05:36:50;;;;;;;;;;;;;;;23.80;27.62;100053.34;1768701;79;20494;-67
2021/05/07 05:39:18;;;;;;;;;;;;;;;23.52;27.51;100045.88;1799675;79;21199;-68
2021/05/07 05:41:46;;;;;;;;;;;;;;;23.15;28.10;100045.16;1800092;79;20150;-69
2021/05/07 05:44:14;;;;;;;;;;;;;;;22.82;28.43;100048.09;1799868;79;20130;-70
2021/05/07 05:46:42;;;;;;;;;;;;;;;22.53;28.96;100051.98;1799895;79;20209;-69
2021/05/07 05:49:10;;;;;;;;;;;;;;;22.31;29.39;100051.33;1799911;79;20129;-69
2021/05/07 05:51:38;;;;;;;;;;;;;;;22.11;29.69;100058.56;1800030;79;21193;-69
2021/05/07 05:54:07;;;;;;;;;;;;;;;21.98;30.13;100056.90;1799845;79;20138;-69
2021/05/07 05:56:36;;;;;;;;;;;;;;;21.91;29.27;100056.48;1799824;79;20154;-68
2021/05/07 05:59:04;;;;;;;;;;;;;;;21.73;28.92;100054.63;1799869;79;20133;-69
2021/05/07 06:01:32;;;;;;;;;;;;;;;21.58;28.54;100048.33;1796022;79;20154;-68
2021/05/07 06:04:00;;;;;;;;;;;;;;;21.40;29.01;100052.70;1799861;79;21192;-69
2021/05/07 06:06:28;;;;;;;;;;;;;;;21.25;29.37;100061.14;1799883;79;20198;-69
2021/05/07 06:08:56;;;;;;;;;;;;;;;21.12;29.79;100067.59;1799859;79;20138;-70
2021/05/07 06:11:24;;;;;;;;;;;;;;;21.06;29.27;100063.33;1796484;79;20145;-70
2021/05/07 06:13:52;;;;;;;;;;;;;;;21.04;29.11;100069.63;1782492;79;20201;-67
2021/05/07 06:16:20;;;;;;;;;;;;;;;21.07;30.38;100067.67;1799920;79;22125;-69
2021/05/07 06:18:49;;;;;;;;;;;;;;;21.18;29.00;100064.23;1799754;79;20205;-69
2021/05/07 06:21:16;;;;;;;;;;;;;;;21.16;28.49;100070.55;1799954;79;20149;-68
2021/05/07 06:23:45;;;;;;;;;;;;;;;21.09;29.03;100075.55;1796546;79;20229;-68
2021/05/07 06:26:13;;;;;;;;;;;;;;;21.10;28.85;100079.34;1799894;79;20486;-69
2021/05/07 06:28:40;;;;;;;;;;;;;;;21.04;28.95;100076.98;1794125;79;21196;-69
2021/05/07 06:31:08;;;;;;;;;;;;;;;20.93;29.23;100077.13;1766746;80;20249;-69
2021/05/07 06:33:36;;;;;;;;;;;;;;;20.76;29.00;100064.03;1766297;80;20238;-69
2021/05/07 06:36:04;;;;;;;;;;;;;;;20.67;29.61;100061.72;1785548;80;20285;-69
2021/05/07 06:38:33;;;;;;;;;;;;;;;20.57;29.46;100071.34;1783215;80;20249;-68
2021/05/07 06:41:01;;;;;;;;;;;;;;;20.40;29.38;100070.45;1788586;80;21891;-69
2021/05/07 06:43:29;;;;;;;;;;;;;;;20.25;29.05;100070.09;1788629;80;20224;-69
2021/05/07 06:45:58;;;;;;;;;;;;;;;20.19;29.74;100064.45;1788519;80;20218;-69
2021/05/07 06:48:26;;;;;;;;;;;;;;;20.28;29.85;100062.70;1787061;80;20225;-69
2021/05/07 06:50:54;;;;;;;;;;;;;;;20.37;28.95;100060.16;1788069;80;20221;-68
2021/05/07 06:53:22;;;;;;;;;;;;;;;20.34;29.20;100059.38;1788716;80;21255;-68
2021/05/07 06:55:49;;;;;;;;;;;;;;;20.33;29.12;100051.74;1788425;80;20229;-69
2021/05/07 06:58:19;;;;;;;;;;;;;;;20.33;28.62;100046.30;1765998;80;20511;-69
2021/05/07 07:00:47;;;;;;;;;;;;;;;20.27;28.11;100055.63;1788700;79;20622;-69
2021/05/07 07:03:15;;;;;;;;;;;;;;;20.24;28.08;100057.58;1788580;79;20507;-69
2021/05/07 07:05:43;;;;;;;;;;;;;;;20.20;27.04;100060.08;1766017;80;22189;-68
2021/05/07 07:08:11;;;;;;;;;;;;;;;20.15;26.96;100062.84;1788465;80;20138;-68
2021/05/07 07:10:39;;;;;;;;;;;;;;;20.16;27.57;100063.67;1788619;79;20201;-68
2021/05/07 07:13:07;;;;;;;;;;;;;;;20.24;28.29;100060.30;1788628;80;20570;-67
2021/05/07 07:15:36;;;;;;;;;;;;;;;20.36;27.30;100063.44;1787257;80;20142;-69
2021/05/07 07:18:04;;;;;;;;;;;;;;;20.40;26.72;100061.73;1788959;80;21271;-69
2021/05/07 07:20:33;;;;;;;;;;;;;;;20.43;27.00;100063.87;1788790;80;20225;-68
2021/05/07 07:23:01;;;;;;;;;;;;;;;20.48;25.33;100071.19;1783996;80;20626;-68
2021/05/07 07:25:29;;;;;;;;;;;;;;;20.41;24.97;100071.53;1788706;80;20545;-68
2021/05/07 07:27:56;;;;;;;;;;;;;;;20.33;24.92;100065.36;1789716;79;20222;-69
2021/05/07 07:30:25;;;;;;;;;;;;;;;20.27;25.26;100070.07;1799480;79;20495;-69
2021/05/07 07:32:52;;;;;;;;;;;;;;;20.22;24.68;100065.23;1799499;79;20181;-68
2021/05/07 07:35:21;;;;;;;;;;;;;;;20.15;25.60;100077.02;1800024;79;20491;-69
2021/05/07 07:37:49;;;;;;;;;;;;;;;20.08;25.36;100070.55;1799866;79;20169;-70
2021/05/07 07:40:17;;;;;;;;;;;;;;;20.02;26.33;100073.06;1800003;79;20193;-69
2021/05/07 07:42:45;;;;;;;;;;;;;;;19.98;26.45;100067.93;1707027;83;22199;-68
2021/05/07 07:45:13;;;;;;;;;;;;;;;19.88;26.16;100075.66;1707507;84;20362;-68
2021/05/07 07:47:49;;;;;;;;;;;;;;;19.84;25.96;100071.33;1819642;77;20270;-68
2021/05/07 07:50:17;;;;;;;;;;;;;;;19.73;25.79;100072.52;1793431;79;20254;-71
2021/05/07 07:52:45;;;;;;;;;;;;;;;19.69;26.91;100068.19;1800905;79;21201;-70
2021/05/07 07:55:14;;;;;;;;;;;;;;;19.73;26.94;100070.60;1799858;77;20244;-69
2021/05/07 07:57:42;;;;;;;;;;;;;;;19.76;26.68;100067.86;1801373;79;20196;-69
2021/05/07 08:00:10;;;;;;;;;;;;;;;19.75;26.65;100069.75;1695828;84;20248;-69
2021/05/07 08:02:39;;;;;;;;;;;;;;;19.71;27.53;100077.41;1695520;84;20236;-69
2021/05/07 08:05:08;;;;;;;;;;;;;;;19.64;25.47;100068.78;1694864;83;21420;-70
2021/05/07 08:07:36;;;;;;;;;;;;;;;19.51;26.00;100077.06;1696731;84;20247;-70
2021/05/07 08:10:06;;;;;;;;;;;;;;;19.33;26.77;100067.15;1694899;84;20240;-68
2021/05/07 08:12:34;;;;;;;;;;;;;;;19.26;26.34;100066.66;1695989;84;20216;-67
2021/05/07 08:15:04;;;;;;;;;;;;;;;19.19;26.52;100060.17;1693079;83;20243;-69
2021/05/07 08:17:35;;;;;;;;;;;;;;;19.15;26.92;100067.81;1719787;78;20575;-70
2021/05/07 08:20:05;;;;;;;;;;;;;;;19.12;26.45;100068.38;1805961;78;20175;-70
2021/05/07 08:22:33;;;;;;;;;;;;;;;19.08;26.69;100063.52;1777147;78;20565;-69
2021/05/07 08:25:01;;;;;;;;;;;;;;;19.06;26.97;100066.24;1772785;78;20274;-70
2021/05/07 08:27:29;;;;;;;;;;;;;;;19.05;25.74;100060.01;1789843;78;20492;-70
2021/05/07 08:29:58;;;;;;;;;;;;;;;19.06;26.80;100052.10;1807705;78;21235;-69
2021/05/07 08:32:25;;;;;;;;;;;;;;;19.10;26.33;100052.37;1804572;78;20152;-69
2021/05/07 08:34:54;;;;;;;;;;;;;;;19.13;26.95;100053.72;1782632;78;20161;-73
2021/05/07 08:37:23;;;;;;;;;;;;;;;19.10;25.00;100049.66;1794781;78;20281;-76
2021/05/07 08:39:53;;;;;;;;;;;;;;;18.99;25.08;100046.73;1803512;78;20266;-75
2021/05/07 08:42:21;;;;;;;;;;;;;;;18.85;24.87;100047.89;1802881;78;22113;-75
2021/05/07 08:44:49;;;;;;;;;;;;;;;18.73;24.88;100049.59;1802958;78;20214;-74
2021/05/07 08:47:21;;;;;;;;;;;;;;;18.65;25.47;100046.89;1802043;78;20510;-74
2021/05/07 08:49:51;;;;;;;;;;;;;;;18.63;25.81;100051.80;1801937;79;20222;-74
2021/05/07 08:52:19;;;;;;;;;;;;;;;18.64;26.67;100038.50;1802896;79;20570;-76
2021/05/07 08:54:48;;;;;;;;;;;;;;;18.68;26.41;100033.31;1797713;79;21197;-75
2021/05/07 08:57:17;;;;;;;;;;;;;;;18.70;25.21;100031.15;1793127;79;20120;-73
2021/05/07 08:59:46;;;;;;;;;;;;;;;18.64;25.85;100026.29;1797351;79;20130;-74
2021/05/07 09:02:31;;;;;;;;;;;;;;;18.64;26.81;100026.29;1761423;79;20189;-75
2021/05/07 09:04:59;;;;;;;;;;;;;;;18.72;27.84;100028.95;1796473;79;20240;-75
2021/05/07 09:07:29;;;;;;;;;;;;;;;18.79;27.53;100021.87;1797580;79;21275;-75
2021/05/07 09:09:59;;;;;;;;;;;;;;;18.82;26.71;100008.53;1796108;79;20567;-76
2021/05/07 09:12:36;;;;;;;;;;;;;;;18.79;26.79;100016.44;1794326;79;20505;-72
2021/05/07 09:15:07;;;;;;;;;;;;;;;18.79;27.30;100014.52;1797924;79;20243;-74
2021/05/07 09:17:37;;;;;;;;;;;;;;;18.81;26.83;100012.88;1798747;79;20573;-76
2021/05/07 09:20:11;;;;;;;;;;;;;;;18.81;26.14;100004.17;1799447;79;21197;-74
2021/05/07 09:22:41;;;;;;;;;;;;;;;18.81;26.07;100005.53;1792403;79;20141;-73
2021/05/07 09:25:17;;;;;;;;;;;;;;;18.81;26.10;100002.02;1794730;79;20185;-72
2021/05/07 09:27:45;;;;;;;;;;;;;;;18.79;26.83;99992.80;1799184;79;20222;-75
2021/05/07 09:30:24;;;;;;;;;;;;;;;18.81;26.36;99993.87;1800340;79;20136;-74
2021/05/07 09:32:53;;;;;;;;;;;;;;;18.81;26.01;99984.38;1707282;83;21160;-75
2021/05/07 09:35:26;;;;;;;;;;;;;;;18.77;25.99;99988.21;1702477;83;20417;-75
2021/05/07 09:37:58;;;;;;;;;;;;;;;18.77;26.42;99981.42;1704105;83;20298;-75
2021/05/07 09:40:26;;;;;;;;;;;;;;;18.79;26.44;99975.71;1705101;83;20333;-74
2021/05/07 09:43:13;;;;;;;;;;;;;;;18.83;26.63;99976.22;1705367;83;20243;-75
2021/05/07 09:45:42;;;;;;;;;;;;;;;18.89;26.46;99978.38;1706770;83;21168;-72
2021/05/07 09:48:23;;;;;;;;;;;;;;;18.92;26.01;99965.59;1707101;83;20241;-72
2021/05/07 09:51:01;;;;;;;;;;;;;;;18.96;26.80;99976.69;1821923;77;20321;-74
2021/05/07 09:53:31;;;;;;;;;;;;;;;18.95;27.29;99972.34;1814020;79;20184;-73
2021/05/07 09:56:00;;;;;;;;;;;;;;;18.97;26.90;99964.73;1813112;79;21182;-75
2021/05/07 09:58:28;;;;;;;;;;;;;;;18.96;27.11;99963.91;1783105;79;20597;-73
2021/05/07 10:00:57;;;;;;;;;;;;;;;18.93;27.47;99967.75;1814231;79;20643;-70
2021/05/07 10:03:25;;;;;;;;;;;;;;;18.95;26.59;99970.98;1814308;79;20145;-71
2021/05/07 10:05:53;;;;;;;;;;;;;;;18.92;26.62;99971.02;1811244;78;20131;-71
2021/05/07 10:08:21;;;;;;;;;;;;;;;18.91;26.71;99970.75;1815291;77;21364;-71
2021/05/07 10:10:50;;;;;;;;;;;;;;;18.93;26.95;99966.39;1812202;77;20137;-70
2021/05/07 10:13:26;;;;;;;;;;;;;;;18.99;27.47;99964.72;1776993;79;20597;-67
2021/05/07 10:16:08;;;;;;;;;;;;;;;19.06;26.76;99964.38;1802961;79;20135;-67
2021/05/07 10:22:08;;;;;;;;;;;;;;;19.13;26.59;99957.28;1778437;80;20175;-70
2021/05/07 10:28:10;;;;;;;;;;;;;;;19.20;27.61;99959.92;1774131;80;20229;-69
2021/05/07 10:34:03;;;;;;;;;;;;;;;19.31;27.13;99950.31;1780340;80;20988;-66
2021/05/07 10:40:04;;;;;;;;;;;;;;;19.39;26.94;99943.70;1781276;80;20159;-69
2021/05/07 10:46:03;;;;;;;;;;;;;;;19.47;26.74;99931.39;1782745;80;20163;-69
2021/05/07 10:51:53;;;;;;;;;;;;;;;19.46;26.21;99924.89;1762306;80;20193;-70
2021/05/07 10:57:55;;;;;;;;;;;;;;;19.24;26.35;99912.59;1753439;81;20149;-67
2021/05/07 11:04:09;;;;;;;;;;;;;;;19.03;27.76;99908.71;1752546;81;20256;-69
2021/05/07 11:10:10;;;;;;;;;;;;;;;19.03;27.38;99908.71;1752831;81;20554;-70
2021/05/07 11:16:08;;;;;;;;;;;;;;;19.06;27.01;99910.05;1751304;81;20149;-69
2021/05/07 11:22:07;;;;;;;;;;;;;;;18.96;27.32;99902.80;1747899;81;20282;-70
2021/05/07 11:28:12;;;;;;;;;;;;;;;18.69;28.42;99916.86;1748371;81;20413;-73
2021/05/07 11:34:11;;;;;;;;;;;;;;;18.28;29.79;99907.08;1754302;81;20291;-70
2021/05/07 11:40:11;;;;;;;;;;;;;;;18.16;30.00;99898.48;1753052;81;20511;-69
2021/05/07 11:46:09;;;;;;;;;;;;;;;17.89;30.80;99906.45;1751572;81;20161;-69
2021/05/07 11:52:09;;;;;;;;;;;;;;;17.67;33.45;99914.94;1760834;79;20172;-70
2021/05/07 11:58:09;;;;;;;;;;;;;;;17.48;34.80;99913.37;1772770;80;20239;-69
2021/05/07 12:04:08;;;;;;;;;;;;;;;17.30;34.74;99878.20;1770502;80;20176;-70
2021/05/07 12:10:08;;;;;;;;;;;;;;;17.23;36.22;99873.61;1769372;81;20172;-72
2021/05/07 12:16:07;;;;;;;;;;;;;;;17.20;36.08;99860.06;1772335;81;20172;-68
2021/05/07 12:22:05;;;;;;;;;;;;;;;17.18;36.73;99848.68;1771284;81;20171;-69
2021/05/07 12:28:07;;;;;;;;;;;;;;;17.25;35.40;99830.80;1768708;81;20903;-69
2021/05/07 12:34:16;;;;;;;;;;;;;;;17.49;34.76;99816.91;1772343;81;20167;-70
2021/05/07 12:40:15;;;;;;;;;;;;;;;17.75;34.12;99800.50;1772458;81;20318;-68
2021/05/07 12:46:14;;;;;;;;;;;;;;;17.83;33.58;99797.77;1772003;81;20247;-67
2021/05/07 12:52:14;;;;;;;;;;;;;;;17.76;33.43;99794.56;1771787;80;20172;-67
2021/05/07 12:58:12;;;;;;;;;;;;;;;17.66;33.97;99786.73;1771051;81;20557;-69
2021/05/07 13:04:11;;;;;;;;;;;;;;;17.58;34.07;99788.69;1771726;80;20545;-71
2021/05/07 13:10:13;;;;;;;;;;;;;;;17.49;34.34;99786.27;1770012;81;20179;-69
2021/05/07 13:16:12;;;;;;;;;;;;;;;17.46;34.70;99767.86;1769712;81;20563;-70
2021/05/07 13:22:11;;;;;;;;;;;;;;;17.45;34.95;99753.52;1772404;81;20203;-69
2021/05/07 13:28:10;;;;;;;;;;;;;;;17.55;36.50;99747.77;1771373;81;20222;-69
2021/05/07 13:34:09;;;;;;;;;;;;;;;17.62;36.44;99744.20;1769965;81;20140;-68
2021/05/07 13:40:08;;;;;;;;;;;;;;;17.81;37.25;99719.41;1768816;81;20164;-69
2021/05/07 13:46:06;;;;;;;;;;;;;;;17.97;38.01;99716.08;1771994;81;20148;-68
2021/05/07 13:52:05;;;;;;;;;;;;;;;18.00;39.51;99697.88;1772263;80;20489;-67
2021/05/07 13:58:05;;;;;;;;;;;;;;;18.09;41.74;99690.50;1780163;80;20147;-69
2021/05/07 14:04:04;;;;;;;;;;;;;;;18.10;43.22;99683.99;1781630;80;20206;-69
2021/05/07 14:10:05;;;;;;;;;;;;;;;18.07;43.69;99679.94;1780131;80;20238;-69
2021/05/07 14:16:03;;;;;;;;;;;;;;;18.00;44.11;99678.90;1777603;80;20560;-68
2021/05/07 14:22:03;;;;;;;;;;;;;;;17.80;48.06;99725.12;1779644;80;20151;-68
2021/05/07 14:28:03;;;;;;;;;;;;;;;17.05;54.18;99725.53;1781032;80;20202;-69
2021/05/07 14:34:02;;;;;;;;;;;;;;;16.09;57.27;99715.92;1780799;80;20202;-70
2021/05/07 14:40:01;;;;;;;;;;;;;;;15.72;58.69;99698.03;1780748;80;20151;-69
2021/05/07 14:45:59;;;;;;;;;;;;;;;15.59;59.78;99690.73;1780579;80;20304;-70
2021/05/07 14:51:58;;;;;;;;;;;;;;;15.54;60.88;99679.11;1779342;80;20222;-73
2021/05/07 14:57:58;;;;;;;;;;;;;;;15.57;61.10;99677.22;1770232;80;20136;-70
2021/05/07 15:03:56;;;;;;;;;;;;;;;15.65;60.83;99673.17;1777919;80;20298;-70
2021/05/07 15:09:43;;;;;;;;;;;;;;;15.75;60.54;99667.25;1778196;80;20333;-68
2021/05/07 15:15:43;;;;;;;;;;;;;;;15.91;60.75;99661.87;1770514;80;20286;-69
2021/05/07 15:21:42;;;;;;;;;;;;;;;15.99;60.89;99663.21;1770251;80;20247;-68
2021/05/07 15:27:41;;;;;;;;;;;;;;;15.96;61.54;99659.70;1777351;80;20503;-68
2021/05/07 15:33:40;;;;;;;;;;;;;;;15.91;62.20;99653.77;1714666;83;20257;-69
2021/05/07 15:39:28;;;;;;;;;;;;;;;15.92;62.89;99650.78;1767317;80;20258;-68
2021/05/07 15:45:26;;;;;;;;;;;;;;;15.98;63.49;99646.75;1770999;80;20171;-69
2021/05/07 15:51:25;;;;;;;;;;;;;;;16.00;63.29;99637.26;1766878;80;20167;-69
2021/05/07 15:57:13;;;;;;;;;;;;;;;15.96;63.81;99626.75;1751303;80;20143;-68
2021/05/07 16:03:12;;;;;;;;;;;;;;;15.87;64.05;99623.78;1739245;82;20230;-68
2021/05/07 16:08:58;;;;;;;;;;;;;;;15.90;63.91;99621.05;1681995;85;20163;-70
2021/05/07 16:14:57;;;;;;;;;;;;;;;15.92;63.60;99617.00;1671773;84;20300;-68
2021/05/07 16:20:57;;;;;;;;;;;;;;;15.86;63.04;99614.04;1677076;85;20357;-68
2021/05/07 16:26:57;;;;;;;;;;;;;;;15.81;61.41;99610.00;1669142;85;20163;-69
2021/05/07 16:32:56;;;;;;;;;;;;;;;15.77;59.28;99600.23;1735083;82;20308;-69
2021/05/07 16:38:55;;;;;;;;;;;;;;;15.75;57.72;99594.82;1626780;87;20302;-69